createdAt,value
2019-01-21T00:02:08.099Z,79.37
2019-01-21T00:04:38.629Z,85.70
2019-01-21T00:07:09.538Z,92.83
2019-01-21T00:09:40.321Z,86.27
2019-01-21T00:12:11.060Z,89.33
2019-01-21T00:14:41.988Z,101.33
2019-01-21T00:17:12.715Z,91.70
2019-01-21T00:19:43.617Z,84.70
2019-01-21T00:22:14.339Z,102.60
2019-01-21T00:24:45.079Z,103.80
2019-01-21T00:27:15.658Z,95.80
2019-01-21T00:29:46.399Z,107.97
2019-01-21T00:32:17.054Z,125.13
2019-01-21T00:34:47.846Z,93.60
2019-01-21T00:37:18.673Z,98.43
2019-01-21T00:39:49.334Z,103.07
2019-01-21T00:42:19.990Z,110.30
2019-01-21T00:44:50.574Z,86.87
2019-01-21T00:47:21.305Z,91.97
2019-01-21T00:49:52.025Z,109.77
2019-01-21T00:52:22.844Z,120.10
2019-01-21T00:54:53.440Z,106.47
2019-01-21T00:57:24.421Z,107.30
2019-01-21T00:59:55.614Z,94.37
2019-01-21T01:02:27.279Z,101.53
2019-01-21T01:04:57.995Z,95.27
2019-01-21T01:07:28.634Z,96.57
2019-01-21T01:09:59.033Z,93.40
2019-01-21T01:12:29.570Z,90.00
2019-01-21T01:15:00.035Z,97.50
2019-01-21T01:17:33.391Z,98.10
2019-01-21T01:20:03.253Z,107.23
2019-01-21T01:22:34.268Z,105.07
2019-01-21T01:25:05.187Z,87.10
2019-01-21T01:27:35.849Z,88.50
2019-01-21T01:30:07.372Z,104.60
2019-01-21T01:32:38.119Z,100.67
2019-01-21T01:35:09.880Z,109.83
2019-01-21T01:37:41.417Z,99.33
2019-01-21T01:40:14.749Z,105.73
2019-01-21T01:42:45.331Z,93.27
2019-01-21T01:45:22.309Z,90.57
2019-01-21T01:48:02.877Z,106.37
2019-01-21T01:50:33.681Z,96.53
2019-01-21T01:53:04.526Z,87.27
2019-01-21T01:55:35.311Z,91.30
2019-01-21T01:58:09.634Z,93.37
2019-01-21T02:00:40.788Z,93.10
2019-01-21T02:03:11.720Z,106.47
2019-01-21T02:05:42.282Z,97.90
2019-01-21T02:08:14.092Z,90.90
2019-01-21T02:10:45.206Z,81.77
2019-01-21T02:13:15.774Z,97.97
2019-01-21T02:15:46.378Z,80.70
2019-01-21T02:18:17.025Z,98.93
2019-01-21T02:20:51.107Z,107.20
2019-01-21T02:23:24.510Z,93.53
2019-01-21T02:26:01.535Z,94.87
2019-01-21T02:29:04.752Z,84.30
2019-01-21T02:32:11.380Z,92.13
2019-01-21T02:35:19.368Z,92.20
2019-01-21T02:38:22.543Z,85.60
2019-01-21T02:41:20.589Z,80.60
2019-01-21T02:44:29.126Z,84.80
2019-01-21T02:47:33.134Z,99.27
2019-01-21T02:50:29.266Z,84.27
2019-01-21T02:53:36.312Z,99.97
2019-01-21T02:56:43.535Z,105.70
2019-01-21T02:59:52.733Z,73.03
2019-01-21T03:03:09.016Z,81.63
2019-01-21T03:06:14.608Z,80.37
2019-01-21T03:09:22.359Z,96.47
2019-01-21T03:12:10.124Z,76.23
2019-01-21T03:15:18.692Z,84.90
2019-01-21T03:18:26.290Z,106.40
2019-01-21T03:21:34.908Z,102.87
2019-01-21T03:24:41.253Z,75.67
2019-01-21T03:27:43.554Z,75.27
2019-01-21T03:30:40.624Z,92.23
2019-01-21T03:34:00.848Z,98.97
2019-01-21T03:37:11.614Z,78.67
2019-01-21T03:40:32.395Z,86.97
2019-01-21T03:43:58.702Z,90.20
2019-01-21T03:47:11.760Z,91.33
2019-01-21T03:50:37.472Z,103.30
2019-01-21T03:53:45.191Z,85.03
2019-01-21T03:56:31.622Z,92.87
2019-01-21T03:59:52.351Z,89.03
2019-01-21T04:02:52.780Z,103.57
2019-01-21T04:05:32.625Z,88.83
2019-01-21T04:08:15.839Z,74.87
2019-01-21T04:11:39.581Z,91.57
2019-01-21T04:14:53.063Z,91.80
2019-01-21T04:17:59.920Z,88.37
2019-01-21T04:21:23.549Z,98.50
2019-01-21T04:24:33.608Z,86.97
2019-01-21T04:27:14.157Z,84.27
2019-01-21T04:30:32.829Z,112.17
2019-01-21T04:33:33.982Z,85.13
2019-01-21T04:36:41.368Z,91.90
2019-01-21T04:39:38.893Z,78.07
2019-01-21T04:42:30.004Z,80.77
2019-01-21T04:45:54.049Z,85.67
2019-01-21T04:49:09.036Z,90.03
2019-01-21T04:52:03.492Z,107.40
2019-01-21T04:55:15.952Z,84.37
2019-01-21T04:58:36.850Z,79.00
2019-01-21T05:01:39.660Z,88.17
2019-01-21T05:04:37.065Z,90.07
2019-01-21T05:07:53.023Z,84.37
2019-01-21T05:10:56.933Z,77.80
2019-01-21T05:14:11.848Z,106.17
2019-01-21T05:17:32.460Z,78.03
2019-01-21T05:20:53.487Z,86.37
2019-01-21T05:24:11.841Z,78.93
2019-01-21T05:27:32.242Z,80.73
2019-01-21T05:30:33.239Z,79.33
2019-01-21T05:33:36.209Z,93.53
2019-01-21T05:36:56.917Z,81.80
2019-01-21T05:40:09.087Z,87.20
2019-01-21T05:43:16.734Z,102.47
2019-01-21T05:46:30.846Z,81.80
2019-01-21T05:49:30.159Z,80.70
2019-01-21T05:52:33.825Z,102.87
2019-01-21T05:55:57.811Z,108.93
2019-01-21T05:58:53.404Z,82.60
2019-01-21T06:02:03.697Z,86.70
2019-01-21T06:04:56.118Z,124.47
2019-01-21T06:08:03.125Z,122.70
2019-01-21T06:10:56.720Z,110.47
2019-01-21T06:14:11.384Z,132.53
2019-01-21T06:16:56.764Z,133.13
2019-01-21T06:20:08.235Z,143.03
2019-01-21T06:23:13.606Z,119.00
2019-01-21T06:26:03.691Z,135.67
2019-01-21T06:29:08.502Z,125.43
2019-01-21T06:32:08.078Z,141.33
2019-01-21T06:35:04.630Z,125.83
2019-01-21T06:38:16.250Z,122.30
2019-01-21T06:41:28.048Z,117.07
2019-01-21T06:44:35.527Z,129.97
2019-01-21T06:47:50.009Z,121.10
2019-01-21T06:50:48.804Z,123.40
2019-01-21T06:53:58.653Z,106.47
2019-01-21T06:57:02.919Z,100.40
2019-01-21T07:00:05.876Z,87.70
2019-01-21T07:03:14.996Z,68.00
2019-01-21T07:06:25.530Z,73.87
2019-01-21T07:09:41.217Z,77.63
2019-01-21T07:12:51.747Z,76.47
2019-01-21T07:15:51.936Z,90.10
2019-01-21T07:19:03.878Z,84.60
2019-01-21T07:22:16.512Z,89.87
2019-01-21T07:25:13.933Z,110.93
2019-01-21T07:28:29.647Z,108.37
2019-01-21T07:31:15.883Z,93.37
2019-01-21T07:34:09.331Z,84.87
2019-01-21T07:37:24.470Z,111.23
2019-01-21T07:40:36.024Z,107.07
2019-01-21T07:43:42.283Z,107.80
2019-01-21T07:46:56.676Z,87.37
2019-01-21T07:49:58.580Z,87.17
2019-01-21T07:52:58.784Z,97.20
2019-01-21T07:56:25.506Z,101.13
2019-01-21T07:59:41.342Z,118.27
2019-01-21T08:02:54.760Z,114.17
2019-01-21T08:05:47.400Z,113.30
2019-01-21T08:08:35.236Z,108.83
2019-01-21T08:11:41.769Z,116.87
2019-01-21T08:14:43.978Z,116.70
2019-01-21T08:18:10.773Z,109.40
2019-01-21T08:21:10.292Z,100.23
2019-01-21T08:24:33.965Z,99.87
2019-01-21T08:27:31.700Z,89.37
2019-01-21T08:30:33.357Z,92.07
2019-01-21T08:33:40.560Z,84.97
2019-01-21T08:36:52.495Z,94.43
2019-01-21T08:40:04.943Z,97.63
2019-01-21T08:43:02.530Z,97.53
2019-01-21T08:46:21.366Z,95.50
2019-01-21T08:49:51.529Z,90.83
2019-01-21T08:53:12.101Z,86.80
2019-01-21T08:56:36.220Z,73.03
2019-01-21T08:59:34.957Z,86.17
2019-01-21T09:02:35.622Z,79.60
2019-01-21T09:05:30.962Z,91.23
2019-01-21T09:08:51.614Z,79.80
2019-01-21T09:11:59.101Z,74.63
2019-01-21T09:15:22.624Z,79.20
2019-01-21T09:18:06.552Z,80.80
2019-01-21T09:21:04.989Z,68.30
2019-01-21T09:24:05.471Z,71.60
2019-01-21T09:26:49.112Z,75.17
2019-01-21T09:29:50.566Z,73.80
2019-01-21T09:32:43.781Z,74.70
2019-01-21T09:35:32.233Z,58.20
2019-01-21T09:38:50.871Z,71.43
2019-01-21T09:41:50.842Z,62.47
2019-01-21T09:44:43.723Z,59.60
2019-01-21T09:47:12.481Z,69.33
2019-01-21T09:49:43.779Z,72.53
2019-01-21T09:52:17.814Z,57.53
2019-01-21T09:54:49.050Z,71.23
2019-01-21T09:57:25.118Z,75.37
2019-01-21T10:00:00.287Z,69.07
2019-01-21T10:02:47.621Z,60.40
2019-01-21T10:05:19.117Z,61.27
2019-01-21T10:08:29.461Z,60.97
2019-01-21T10:12:05.189Z,64.03
2019-01-21T10:15:19.045Z,61.17
2019-01-21T10:18:15.692Z,58.07
2019-01-21T10:21:29.078Z,61.27
2019-01-21T10:24:26.384Z,63.20
2019-01-21T10:27:44.099Z,57.57
2019-01-21T10:31:08.288Z,63.57
2019-01-21T10:33:59.816Z,55.50
2019-01-21T10:36:54.777Z,54.13
2019-01-21T10:40:08.203Z,60.13
2019-01-21T10:42:49.576Z,52.23
2019-01-21T10:45:50.838Z,63.93
2019-01-21T10:49:02.828Z,64.23
2019-01-21T10:52:19.424Z,65.37
2019-01-21T10:55:16.657Z,61.57
2019-01-21T10:58:11.000Z,59.40
2019-01-21T11:01:08.411Z,57.33
2019-01-21T11:04:03.282Z,45.63
2019-01-21T11:07:08.938Z,49.47
2019-01-21T11:10:02.417Z,44.50
2019-01-21T11:12:52.958Z,51.60
2019-01-21T11:16:22.684Z,53.53
2019-01-21T11:19:34.303Z,57.83
2019-01-21T11:22:17.865Z,54.00
2019-01-21T11:25:37.093Z,61.67
2019-01-21T11:28:54.085Z,57.00
2019-01-21T11:32:13.819Z,54.40
2019-01-21T11:35:19.210Z,59.27
2019-01-21T11:38:16.200Z,60.47
2019-01-21T11:41:27.728Z,51.27
2019-01-21T11:44:42.549Z,42.77
2019-01-21T11:47:25.618Z,51.03
2019-01-21T11:50:25.126Z,44.10
2019-01-21T11:53:21.544Z,51.17
2019-01-21T11:56:30.173Z,56.07
2019-01-21T11:59:22.718Z,61.63
2019-01-21T12:02:19.764Z,64.80
2019-01-21T12:05:16.247Z,62.23
2019-01-21T12:08:35.442Z,63.77
2019-01-21T12:11:31.810Z,63.23
2019-01-21T12:14:57.952Z,55.83
2019-01-21T12:18:04.559Z,56.93
2019-01-21T12:21:14.397Z,67.23
2019-01-21T12:24:21.723Z,61.93
2019-01-21T12:27:24.866Z,65.87
2019-01-21T12:30:41.358Z,55.17
2019-01-21T12:33:43.273Z,65.90
2019-01-21T12:37:18.906Z,58.30
2019-01-21T12:40:45.590Z,58.47
2019-01-21T12:43:43.650Z,64.83
2019-01-21T12:46:50.436Z,64.90
2019-01-21T12:49:58.058Z,65.03
2019-01-21T12:52:52.979Z,66.90
2019-01-21T12:56:00.763Z,67.67
2019-01-21T12:58:57.062Z,62.80
2019-01-21T13:01:51.948Z,57.33
2019-01-21T13:04:47.814Z,51.03
2019-01-21T13:07:46.416Z,52.23
2019-01-21T13:11:06.165Z,68.90
2019-01-21T13:14:18.615Z,66.23
2019-01-21T13:17:12.840Z,67.93
2019-01-21T13:20:06.621Z,61.07
2019-01-21T13:23:17.358Z,54.77
2019-01-21T13:26:20.185Z,48.87
2019-01-21T13:29:28.962Z,71.57
2019-01-21T13:32:47.797Z,54.73
2019-01-21T13:36:08.613Z,61.87
2019-01-21T13:39:17.248Z,57.87
2019-01-21T13:42:08.422Z,67.67
2019-01-21T13:45:19.106Z,63.17
2019-01-21T13:48:45.164Z,63.93
2019-01-21T13:51:57.878Z,55.40
2019-01-21T13:55:04.758Z,69.73
2019-01-21T13:58:00.244Z,58.07
2019-01-21T14:00:53.333Z,56.13
2019-01-21T14:04:10.937Z,61.30
2019-01-21T14:07:29.933Z,56.43
2019-01-21T14:10:29.990Z,55.80
2019-01-21T14:13:47.495Z,59.63
2019-01-21T14:16:52.322Z,74.13
2019-01-21T14:20:04.711Z,68.07
2019-01-21T14:22:59.223Z,54.23
2019-01-21T14:26:06.874Z,62.37
2019-01-21T14:29:12.553Z,57.17
2019-01-21T14:32:29.837Z,70.70
2019-01-21T14:35:29.008Z,76.80
2019-01-21T14:38:52.995Z,71.20
2019-01-21T14:42:19.800Z,48.57
2019-01-21T14:45:43.382Z,61.40
2019-01-21T14:49:05.034Z,72.97
2019-01-21T14:52:25.942Z,71.63
2019-01-21T14:55:21.258Z,60.23
2019-01-21T14:58:38.630Z,57.70
2019-01-21T15:01:45.859Z,55.57
2019-01-21T15:04:50.003Z,70.33
2019-01-21T15:07:33.358Z,70.87
2019-01-21T15:10:36.749Z,73.33
2019-01-21T15:13:27.222Z,60.57
2019-01-21T15:16:39.784Z,67.60
2019-01-21T15:19:28.080Z,68.67
2019-01-21T15:22:38.414Z,60.07
2019-01-21T15:25:32.455Z,66.33
2019-01-21T15:28:37.758Z,92.07
2019-01-21T15:31:51.198Z,75.20
2019-01-21T15:35:20.484Z,63.67
2019-01-21T15:38:42.617Z,57.37
2019-01-21T15:41:51.262Z,75.53
2019-01-21T15:45:00.589Z,60.20
2019-01-21T15:48:12.609Z,68.57
2019-01-21T15:51:22.971Z,62.73
2019-01-21T15:54:22.405Z,82.43
2019-01-21T15:57:40.078Z,75.27
2019-01-21T16:00:57.724Z,62.87
2019-01-21T16:03:58.692Z,67.13
2019-01-21T16:07:19.343Z,63.20
2019-01-21T16:10:42.611Z,76.33
2019-01-21T16:13:49.504Z,57.37
2019-01-21T16:17:09.941Z,60.03
2019-01-21T16:19:47.285Z,55.23
2019-01-21T16:22:56.805Z,65.93
2019-01-21T16:25:41.038Z,60.33
2019-01-21T16:28:42.425Z,82.27
2019-01-21T16:31:56.863Z,67.37
2019-01-21T16:35:33.181Z,60.20
2019-01-21T16:38:49.955Z,54.17
2019-01-21T16:41:57.757Z,77.50
2019-01-21T16:44:28.527Z,89.33
2019-01-21T16:46:59.465Z,73.80
2019-01-21T16:49:30.125Z,57.57
2019-01-21T16:52:00.759Z,66.07
2019-01-21T16:54:32.670Z,82.20
2019-01-21T16:57:03.305Z,61.87
2019-01-21T16:59:34.252Z,69.50
2019-01-21T17:02:05.169Z,65.50
2019-01-21T17:04:36.750Z,102.33
2019-01-21T17:07:07.720Z,89.80
2019-01-21T17:09:38.477Z,88.67
2019-01-21T17:12:09.259Z,52.43
2019-01-21T17:14:39.999Z,88.93
2019-01-21T17:19:41.307Z,77.93
2019-01-21T17:22:11.893Z,73.93
2019-01-21T17:24:42.784Z,71.97
2019-01-21T17:27:13.435Z,77.17
2019-01-21T17:29:44.147Z,83.20
2019-01-21T17:32:14.690Z,79.00
2019-01-21T17:34:45.520Z,77.37
2019-01-21T17:37:16.296Z,88.63
2019-01-21T17:39:47.310Z,75.73
2019-01-21T17:42:17.944Z,94.30
2019-01-21T17:44:48.644Z,76.30
2019-01-21T17:47:19.448Z,76.63
2019-01-21T17:49:50.184Z,82.33
2019-01-21T17:52:21.813Z,71.93
2019-01-21T17:54:53.804Z,74.40
2019-01-21T17:57:24.947Z,85.07
2019-01-21T17:59:55.656Z,86.57
2019-01-21T18:02:27.181Z,87.13
2019-01-21T18:04:59.530Z,79.47
2019-01-21T18:07:30.034Z,82.30
2019-01-21T18:10:00.729Z,82.80
2019-01-21T18:12:32.723Z,81.00
2019-01-21T18:15:04.481Z,88.03
2019-01-21T18:17:35.637Z,89.93
2019-01-21T18:20:09.469Z,70.10
2019-01-21T18:22:40.072Z,87.93
2019-01-21T18:25:11.742Z,77.03
2019-01-21T18:27:42.349Z,79.47
2019-01-21T18:30:16.493Z,54.90
2019-01-21T18:32:47.271Z,73.87
2019-01-21T18:35:19.337Z,76.93
2019-01-21T18:37:50.165Z,82.73
2019-01-21T18:40:22.079Z,88.07
2019-01-21T18:42:52.946Z,89.43
2019-01-21T18:45:26.595Z,78.63
2019-01-21T18:47:57.684Z,69.07
2019-01-21T18:50:28.352Z,68.60
2019-01-21T18:52:58.996Z,65.93
2019-01-21T18:55:29.693Z,71.03
2019-01-21T18:58:00.390Z,60.93
2019-01-21T19:00:32.352Z,81.30
2019-01-21T19:03:03.304Z,66.03
2019-01-21T19:05:34.170Z,74.50
2019-01-21T19:08:05.543Z,84.93
2019-01-21T19:10:36.456Z,78.20
2019-01-21T19:13:07.606Z,88.10
2019-01-21T19:15:38.430Z,79.70
2019-01-21T19:18:09.286Z,100.80
2019-01-21T19:20:39.945Z,74.77
2019-01-21T19:23:10.715Z,75.57
2019-01-21T19:25:41.554Z,82.33
2019-01-21T19:28:12.493Z,71.93
2019-01-21T19:30:43.250Z,83.97
2019-01-21T19:33:14.083Z,73.03
2019-01-21T19:35:44.967Z,69.80
2019-01-21T19:38:15.772Z,72.43
2019-01-21T19:40:46.631Z,71.33
2019-01-21T19:43:17.705Z,76.67
2019-01-21T19:45:48.725Z,81.87
2019-01-21T19:48:19.558Z,73.43
2019-01-21T19:50:50.354Z,72.90
2019-01-21T19:53:21.269Z,53.33
2019-01-21T19:55:53.043Z,78.50
2019-01-21T19:58:23.925Z,74.13
2019-01-21T20:00:56.427Z,87.47
2019-01-21T20:03:33.894Z,92.80
2019-01-21T20:05:59.630Z,84.17
2019-01-21T20:08:30.232Z,71.47
2019-01-21T20:11:02.776Z,74.87
2019-01-21T20:13:33.501Z,74.73
2019-01-21T20:16:04.812Z,76.03
2019-01-21T20:18:35.402Z,74.23
2019-01-21T20:21:06.652Z,79.83
2019-01-21T20:23:37.724Z,89.17
2019-01-21T20:26:08.768Z,69.93
2019-01-21T20:28:39.769Z,84.80
2019-01-21T20:31:10.779Z,85.77
2019-01-21T20:33:41.896Z,80.70
2019-01-21T20:36:12.485Z,61.87
2019-01-21T20:38:44.125Z,62.27
2019-01-21T20:41:15.253Z,81.00
2019-01-21T20:43:46.699Z,63.97
2019-01-21T20:46:17.704Z,59.43
2019-01-21T20:48:48.735Z,72.43
2019-01-21T20:51:19.463Z,83.23
2019-01-21T20:53:50.399Z,66.10
2019-01-21T20:56:21.305Z,84.63
2019-01-21T20:58:52.454Z,69.43
2019-01-21T21:01:25.178Z,76.57
2019-01-21T21:03:55.843Z,69.73
2019-01-21T21:06:26.983Z,73.93
2019-01-21T21:08:57.630Z,74.07
2019-01-21T21:11:28.540Z,68.33
2019-01-21T21:13:59.195Z,70.47
2019-01-21T21:16:29.800Z,65.43
2019-01-21T21:19:00.769Z,79.30
2019-01-21T21:21:31.749Z,76.17
2019-01-21T21:24:03.079Z,68.63
2019-01-21T21:26:34.120Z,74.33
2019-01-21T21:29:06.212Z,62.60
2019-01-21T21:31:37.304Z,68.03
2019-01-21T21:34:08.818Z,63.30
2019-01-21T21:36:39.707Z,77.53
2019-01-21T21:39:10.824Z,71.80
2019-01-21T21:41:42.101Z,68.13
2019-01-21T21:44:13.121Z,71.33
2019-01-21T21:46:46.117Z,62.63
2019-01-21T21:49:17.299Z,66.77
2019-01-21T21:51:48.438Z,60.43
2019-01-21T21:54:19.503Z,57.63
2019-01-21T21:56:50.600Z,54.17
2019-01-21T21:59:21.594Z,53.23
2019-01-21T22:01:52.497Z,58.00
2019-01-21T22:04:23.361Z,64.10
2019-01-21T22:06:54.587Z,64.20
2019-01-21T22:09:25.946Z,54.53
2019-01-21T22:11:56.872Z,68.27
2019-01-21T22:14:27.950Z,57.60
2019-01-21T22:16:58.929Z,55.77
2019-01-21T22:19:30.094Z,54.97
2019-01-21T22:22:00.931Z,67.80
2019-01-21T22:24:32.140Z,69.57
2019-01-21T22:27:03.086Z,65.90
2019-01-21T22:29:33.594Z,69.03
2019-01-21T22:32:04.154Z,61.53
2019-01-21T22:34:34.989Z,75.13
2019-01-21T22:37:06.563Z,53.60
2019-01-21T22:39:37.165Z,54.60
2019-01-21T22:42:08.071Z,63.63
2019-01-21T22:44:39.905Z,55.43
2019-01-21T22:47:10.843Z,50.77
2019-01-21T22:49:41.507Z,51.50
2019-01-21T22:52:12.184Z,71.83
2019-01-21T22:54:42.690Z,62.87
2019-01-21T22:57:13.216Z,70.83
2019-01-21T22:59:43.825Z,63.13
2019-01-21T23:02:14.332Z,71.77
2019-01-21T23:04:45.298Z,59.70
2019-01-21T23:07:16.178Z,56.03
2019-01-21T23:09:46.873Z,58.17
2019-01-21T23:12:17.299Z,66.80
2019-01-21T23:14:48.280Z,45.17
2019-01-21T23:17:18.963Z,69.50
2019-01-21T23:19:49.684Z,64.63
2019-01-21T23:22:20.212Z,54.37
2019-01-21T23:24:50.740Z,70.27
2019-01-21T23:27:21.440Z,66.83
2019-01-21T23:29:52.047Z,66.70
2019-01-21T23:32:22.776Z,68.70
2019-01-21T23:34:53.463Z,64.67
2019-01-21T23:37:24.094Z,67.67
2019-01-21T23:39:54.993Z,63.37
2019-01-21T23:42:26.281Z,66.90
2019-01-21T23:44:57.151Z,61.07
2019-01-21T23:47:27.879Z,64.40
2019-01-21T23:49:58.342Z,69.43
2019-01-21T23:52:28.943Z,49.67
2019-01-21T23:54:59.886Z,47.40
2019-01-21T23:57:30.473Z,75.43
